Polvadera, New Mexico
Current Conditions -  °F | °C
As of 9:35 AM on Monday 26 Jan 2015 (Local Time) from KONM Reporting Station
Clear Clear  
Wind Chill: 34°   Ceiling: Unl
Heat Index: 38°   Visibility: 10mi
Dew Point: 28°   Wind: 6mph
Humidity: 66%   Direction: 340°NNW
Pressure: 30.39"   Gusts: NA
Location:  34.2°N, 106.92°W
Report Text: KONM 261635Z AUTO 34005KT 10SM CLR 04/M02 A3039 RMK AO2 T00361022
Loading
Personal Weather Stations






























Interactive Weather Map New forecast layout! Learn more

10-Day Weather Forecast

Advertisements
Track Severe Weather on mobile